sensor_id;sensor_type;location;lat;lon;timestamp;P1;durP1;ratioP1;P2;durP2;ratioP2
74957;SDS011;63741;42.624;26.276;2023-05-15T00:01:32;6.63;;;3.83;;
74957;SDS011;63741;42.624;26.276;2023-05-15T00:03:59;4.93;;;3.30;;
74957;SDS011;63741;42.624;26.276;2023-05-15T00:06:26;6.40;;;3.83;;
74957;SDS011;63741;42.624;26.276;2023-05-15T00:08:53;7.80;;;3.80;;
74957;SDS011;63741;42.624;26.276;2023-05-15T00:11:20;5.15;;;3.47;;
74957;SDS011;63741;42.624;26.276;2023-05-15T00:13:49;6.28;;;4.10;;
74957;SDS011;63741;42.624;26.276;2023-05-15T00:16:16;6.30;;;3.38;;
74957;SDS011;63741;42.624;26.276;2023-05-15T00:18:43;5.10;;;3.67;;
74957;SDS011;63741;42.624;26.276;2023-05-15T00:21:10;6.68;;;4.25;;
74957;SDS011;63741;42.624;26.276;2023-05-15T00:23:37;5.18;;;3.83;;
74957;SDS011;63741;42.624;26.276;2023-05-15T00:26:04;5.70;;;4.07;;
74957;SDS011;63741;42.624;26.276;2023-05-15T00:28:31;5.97;;;4.15;;
74957;SDS011;63741;42.624;26.276;2023-05-15T00:30:58;5.78;;;4.38;;
74957;SDS011;63741;42.624;26.276;2023-05-15T00:33:25;10.68;;;5.40;;
74957;SDS011;63741;42.624;26.276;2023-05-15T00:35:51;8.32;;;5.95;;
74957;SDS011;63741;42.624;26.276;2023-05-15T00:38:18;8.73;;;6.47;;
74957;SDS011;63741;42.624;26.276;2023-05-15T00:40:45;10.48;;;6.18;;
74957;SDS011;63741;42.624;26.276;2023-05-15T00:43:12;8.70;;;5.97;;
74957;SDS011;63741;42.624;26.276;2023-05-15T00:45:41;10.15;;;6.00;;
74957;SDS011;63741;42.624;26.276;2023-05-15T00:48:09;7.68;;;5.63;;
74957;SDS011;63741;42.624;26.276;2023-05-15T00:50:37;9.43;;;5.90;;
74957;SDS011;63741;42.624;26.276;2023-05-15T00:53:07;10.60;;;5.95;;
74957;SDS011;63741;42.624;26.276;2023-05-15T00:55:34;9.55;;;6.32;;
74957;SDS011;63741;42.624;26.276;2023-05-15T00:58:02;11.88;;;5.95;;
74957;SDS011;63741;42.624;26.276;2023-05-15T01:00:30;8.88;;;6.32;;
74957;SDS011;63741;42.624;26.276;2023-05-15T01:02:58;8.75;;;5.95;;
74957;SDS011;63741;42.624;26.276;2023-05-15T01:05:26;7.53;;;5.95;;
74957;SDS011;63741;42.624;26.276;2023-05-15T01:08:03;10.85;;;6.70;;
74957;SDS011;63741;42.624;26.276;2023-05-15T01:10:38;9.98;;;6.20;;
74957;SDS011;63741;42.624;26.276;2023-05-15T01:13:08;8.85;;;6.68;;
74957;SDS011;63741;42.624;26.276;2023-05-15T01:15:35;11.93;;;6.60;;
74957;SDS011;63741;42.624;26.276;2023-05-15T01:18:03;9.10;;;6.22;;
74957;SDS011;63741;42.624;26.276;2023-05-15T01:20:38;10.32;;;6.00;;
74957;SDS011;63741;42.624;26.276;2023-05-15T01:23:14;9.90;;;6.63;;
74957;SDS011;63741;42.624;26.276;2023-05-15T01:25:53;7.78;;;5.97;;
74957;SDS011;63741;42.624;26.276;2023-05-15T01:28:31;8.40;;;5.63;;
74957;SDS011;63741;42.624;26.276;2023-05-15T01:31:05;10.73;;;5.63;;
74957;SDS011;63741;42.624;26.276;2023-05-15T01:33:42;7.80;;;5.32;;
74957;SDS011;63741;42.624;26.276;2023-05-15T01:39:18;7.05;;;4.78;;
74957;SDS011;63741;42.624;26.276;2023-05-15T01:44:32;7.43;;;5.18;;
74957;SDS011;63741;42.624;26.276;2023-05-15T01:47:25;7.45;;;5.28;;
74957;SDS011;63741;42.624;26.276;2023-05-15T01:49:53;6.68;;;4.93;;
74957;SDS011;63741;42.624;26.276;2023-05-15T01:52:23;7.82;;;4.97;;
74957;SDS011;63741;42.624;26.276;2023-05-15T01:54:56;7.45;;;5.00;;
74957;SDS011;63741;42.624;26.276;2023-05-15T01:57:24;7.30;;;5.10;;
74957;SDS011;63741;42.624;26.276;2023-05-15T01:59:53;6.88;;;4.95;;
74957;SDS011;63741;42.624;26.276;2023-05-15T02:02:21;10.02;;;5.28;;
74957;SDS011;63741;42.624;26.276;2023-05-15T02:04:52;7.63;;;5.07;;
74957;SDS011;63741;42.624;26.276;2023-05-15T02:07:20;7.68;;;4.78;;
74957;SDS011;63741;42.624;26.276;2023-05-15T02:09:49;9.05;;;4.95;;
74957;SDS011;63741;42.624;26.276;2023-05-15T02:12:17;7.07;;;5.22;;
74957;SDS011;63741;42.624;26.276;2023-05-15T02:14:47;7.68;;;5.00;;
74957;SDS011;63741;42.624;26.276;2023-05-15T02:17:18;6.85;;;5.00;;
74957;SDS011;63741;42.624;26.276;2023-05-15T02:19:47;9.48;;;4.97;;
74957;SDS011;63741;42.624;26.276;2023-05-15T02:22:15;7.15;;;4.63;;
74957;SDS011;63741;42.624;26.276;2023-05-15T02:24:42;6.50;;;4.72;;
74957;SDS011;63741;42.624;26.276;2023-05-15T02:32:49;6.15;;;4.10;;
74957;SDS011;63741;42.624;26.276;2023-05-15T02:35:35;6.53;;;4.20;;
74957;SDS011;63741;42.624;26.276;2023-05-15T02:38:08;6.57;;;4.43;;
74957;SDS011;63741;42.624;26.276;2023-05-15T02:40:40;13.68;;;4.82;;
74957;SDS011;63741;42.624;26.276;2023-05-15T02:43:08;14.75;;;4.70;;
74957;SDS011;63741;42.624;26.276;2023-05-15T02:45:36;6.97;;;4.30;;
74957;SDS011;63741;42.624;26.276;2023-05-15T02:48:04;5.22;;;4.15;;
74957;SDS011;63741;42.624;26.276;2023-05-15T02:50:32;5.65;;;4.03;;
74957;SDS011;63741;42.624;26.276;2023-05-15T02:53:05;6.80;;;4.38;;
74957;SDS011;63741;42.624;26.276;2023-05-15T02:55:33;4.80;;;3.70;;
74957;SDS011;63741;42.624;26.276;2023-05-15T02:58:00;6.85;;;4.00;;
74957;SDS011;63741;42.624;26.276;2023-05-15T03:00:29;5.75;;;3.80;;
74957;SDS011;63741;42.624;26.276;2023-05-15T03:02:55;18.10;;;4.20;;
74957;SDS011;63741;42.624;26.276;2023-05-15T03:05:22;7.57;;;4.05;;
74957;SDS011;63741;42.624;26.276;2023-05-15T03:07:49;12.02;;;4.15;;
74957;SDS011;63741;42.624;26.276;2023-05-15T03:10:16;4.70;;;3.78;;
74957;SDS011;63741;42.624;26.276;2023-05-15T03:12:43;4.80;;;3.70;;
74957;SDS011;63741;42.624;26.276;2023-05-15T03:15:10;12.38;;;4.15;;
74957;SDS011;63741;42.624;26.276;2023-05-15T03:17:37;8.52;;;3.83;;
74957;SDS011;63741;42.624;26.276;2023-05-15T03:20:04;5.53;;;3.53;;
74957;SDS011;63741;42.624;26.276;2023-05-15T03:22:31;5.55;;;3.42;;
74957;SDS011;63741;42.624;26.276;2023-05-15T03:24:58;4.80;;;3.22;;
74957;SDS011;63741;42.624;26.276;2023-05-15T03:27:27;8.27;;;3.65;;
74957;SDS011;63741;42.624;26.276;2023-05-15T03:29:54;4.35;;;3.20;;
74957;SDS011;63741;42.624;26.276;2023-05-15T03:32:21;4.50;;;3.63;;
74957;SDS011;63741;42.624;26.276;2023-05-15T03:34:48;5.90;;;3.55;;
74957;SDS011;63741;42.624;26.276;2023-05-15T03:37:14;9.57;;;3.80;;
74957;SDS011;63741;42.624;26.276;2023-05-15T03:39:41;11.55;;;3.72;;
74957;SDS011;63741;42.624;26.276;2023-05-15T03:42:09;8.45;;;3.70;;
74957;SDS011;63741;42.624;26.276;2023-05-15T03:44:36;7.90;;;3.60;;
74957;SDS011;63741;42.624;26.276;2023-05-15T03:47:03;5.95;;;3.70;;
74957;SDS011;63741;42.624;26.276;2023-05-15T03:49:30;7.47;;;3.97;;
74957;SDS011;63741;42.624;26.276;2023-05-15T03:51:57;11.23;;;3.70;;
74957;SDS011;63741;42.624;26.276;2023-05-15T03:54:24;5.47;;;3.80;;
74957;SDS011;63741;42.624;26.276;2023-05-15T03:56:51;5.53;;;3.67;;
74957;SDS011;63741;42.624;26.276;2023-05-15T03:59:18;4.97;;;3.33;;
74957;SDS011;63741;42.624;26.276;2023-05-15T04:01:45;9.77;;;3.70;;
74957;SDS011;63741;42.624;26.276;2023-05-15T04:04:29;5.28;;;4.00;;
74957;SDS011;63741;42.624;26.276;2023-05-15T04:06:56;17.15;;;3.85;;
74957;SDS011;63741;42.624;26.276;2023-05-15T04:09:23;6.97;;;3.45;;
74957;SDS011;63741;42.624;26.276;2023-05-15T04:11:49;6.32;;;3.70;;
74957;SDS011;63741;42.624;26.276;2023-05-15T04:14:16;4.45;;;3.17;;
74957;SDS011;63741;42.624;26.276;2023-05-15T04:16:43;6.40;;;3.75;;
74957;SDS011;63741;42.624;26.276;2023-05-15T04:19:10;4.70;;;3.40;;
74957;SDS011;63741;42.624;26.276;2023-05-15T04:21:37;5.43;;;3.50;;
74957;SDS011;63741;42.624;26.276;2023-05-15T04:24:05;6.22;;;3.55;;
74957;SDS011;63741;42.624;26.276;2023-05-15T04:26:32;7.38;;;3.60;;
74957;SDS011;63741;42.624;26.276;2023-05-15T04:28:59;5.63;;;3.65;;
74957;SDS011;63741;42.624;26.276;2023-05-15T04:31:30;6.07;;;3.65;;
74957;SDS011;63741;42.624;26.276;2023-05-15T04:33:57;5.13;;;3.35;;
74957;SDS011;63741;42.624;26.276;2023-05-15T04:36:24;8.38;;;3.60;;
74957;SDS011;63741;42.624;26.276;2023-05-15T04:38:51;7.78;;;3.75;;
74957;SDS011;63741;42.624;26.276;2023-05-15T04:41:18;16.92;;;4.13;;
74957;SDS011;63741;42.624;26.276;2023-05-15T04:43:45;7.43;;;3.95;;
74957;SDS011;63741;42.624;26.276;2023-05-15T04:46:12;5.13;;;3.60;;
74957;SDS011;63741;42.624;26.276;2023-05-15T04:48:40;16.48;;;4.20;;
74957;SDS011;63741;42.624;26.276;2023-05-15T04:51:07;6.60;;;3.90;;
74957;SDS011;63741;42.624;26.276;2023-05-15T04:53:34;5.32;;;4.00;;
74957;SDS011;63741;42.624;26.276;2023-05-15T04:56:01;6.43;;;3.55;;
74957;SDS011;63741;42.624;26.276;2023-05-15T04:58:28;20.33;;;4.40;;
74957;SDS011;63741;42.624;26.276;2023-05-15T05:00:54;34.08;;;4.90;;
74957;SDS011;63741;42.624;26.276;2023-05-15T05:03:21;11.50;;;3.63;;
74957;SDS011;63741;42.624;26.276;2023-05-15T05:05:48;10.25;;;5.05;;
74957;SDS011;63741;42.624;26.276;2023-05-15T05:08:15;13.43;;;6.07;;
74957;SDS011;63741;42.624;26.276;2023-05-15T05:10:42;22.15;;;6.03;;
74957;SDS011;63741;42.624;26.276;2023-05-15T05:13:09;14.85;;;5.35;;
74957;SDS011;63741;42.624;26.276;2023-05-15T05:15:36;11.52;;;4.75;;
74957;SDS011;63741;42.624;26.276;2023-05-15T05:18:03;11.55;;;4.43;;
74957;SDS011;63741;42.624;26.276;2023-05-15T05:20:30;7.95;;;3.92;;
74957;SDS011;63741;42.624;26.276;2023-05-15T05:22:57;7.40;;;4.10;;
74957;SDS011;63741;42.624;26.276;2023-05-15T05:25:24;6.63;;;4.20;;
74957;SDS011;63741;42.624;26.276;2023-05-15T05:27:51;6.78;;;4.35;;
74957;SDS011;63741;42.624;26.276;2023-05-15T05:30:18;8.23;;;4.18;;
74957;SDS011;63741;42.624;26.276;2023-05-15T05:32:46;12.88;;;5.35;;
74957;SDS011;63741;42.624;26.276;2023-05-15T05:35:13;10.13;;;5.03;;
74957;SDS011;63741;42.624;26.276;2023-05-15T05:37:40;7.88;;;5.20;;
74957;SDS011;63741;42.624;26.276;2023-05-15T05:40:07;9.05;;;5.55;;
74957;SDS011;63741;42.624;26.276;2023-05-15T05:42:34;11.10;;;5.78;;
74957;SDS011;63741;42.624;26.276;2023-05-15T05:45:01;8.05;;;5.28;;
74957;SDS011;63741;42.624;26.276;2023-05-15T05:47:28;11.68;;;6.10;;
74957;SDS011;63741;42.624;26.276;2023-05-15T05:49:55;6.82;;;5.32;;
74957;SDS011;63741;42.624;26.276;2023-05-15T05:52:22;10.70;;;5.57;;
74957;SDS011;63741;42.624;26.276;2023-05-15T05:54:49;10.73;;;5.95;;
74957;SDS011;63741;42.624;26.276;2023-05-15T05:57:16;8.88;;;5.85;;
74957;SDS011;63741;42.624;26.276;2023-05-15T05:59:43;9.25;;;5.80;;
74957;SDS011;63741;42.624;26.276;2023-05-15T06:02:11;10.45;;;6.32;;
74957;SDS011;63741;42.624;26.276;2023-05-15T06:04:38;9.73;;;6.28;;
74957;SDS011;63741;42.624;26.276;2023-05-15T06:07:05;7.25;;;6.28;;
74957;SDS011;63741;42.624;26.276;2023-05-15T06:09:32;9.93;;;6.57;;
74957;SDS011;63741;42.624;26.276;2023-05-15T06:11:59;12.18;;;6.88;;
74957;SDS011;63741;42.624;26.276;2023-05-15T06:14:30;12.27;;;7.10;;
74957;SDS011;63741;42.624;26.276;2023-05-15T06:16:56;15.70;;;7.15;;
74957;SDS011;63741;42.624;26.276;2023-05-15T06:19:23;8.80;;;6.55;;
74957;SDS011;63741;42.624;26.276;2023-05-15T06:21:51;13.27;;;6.82;;
74957;SDS011;63741;42.624;26.276;2023-05-15T06:24:18;22.80;;;7.10;;
74957;SDS011;63741;42.624;26.276;2023-05-15T06:26:45;14.18;;;6.70;;
74957;SDS011;63741;42.624;26.276;2023-05-15T06:29:12;10.70;;;6.25;;
74957;SDS011;63741;42.624;26.276;2023-05-15T06:31:39;8.43;;;5.13;;
74957;SDS011;63741;42.624;26.276;2023-05-15T06:34:05;13.32;;;4.00;;
74957;SDS011;63741;42.624;26.276;2023-05-15T06:36:32;9.63;;;3.83;;
74957;SDS011;63741;42.624;26.276;2023-05-15T06:38:59;12.55;;;5.32;;
74957;SDS011;63741;42.624;26.276;2023-05-15T06:41:26;11.25;;;5.13;;
74957;SDS011;63741;42.624;26.276;2023-05-15T06:43:53;10.43;;;4.95;;
74957;SDS011;63741;42.624;26.276;2023-05-15T06:46:20;9.93;;;5.00;;
74957;SDS011;63741;42.624;26.276;2023-05-15T06:48:47;8.07;;;5.53;;
74957;SDS011;63741;42.624;26.276;2023-05-15T06:51:14;11.43;;;5.15;;
74957;SDS011;63741;42.624;26.276;2023-05-15T06:53:41;25.13;;;5.22;;
74957;SDS011;63741;42.624;26.276;2023-05-15T06:56:08;35.08;;;5.57;;
74957;SDS011;63741;42.624;26.276;2023-05-15T06:58:35;14.10;;;4.40;;
74957;SDS011;63741;42.624;26.276;2023-05-15T07:01:02;10.50;;;4.35;;
74957;SDS011;63741;42.624;26.276;2023-05-15T07:03:29;18.20;;;4.70;;
74957;SDS011;63741;42.624;26.276;2023-05-15T07:05:56;12.80;;;4.75;;
74957;SDS011;63741;42.624;26.276;2023-05-15T07:08:23;9.55;;;4.38;;
74957;SDS011;63741;42.624;26.276;2023-05-15T07:10:50;8.25;;;4.13;;
74957;SDS011;63741;42.624;26.276;2023-05-15T07:13:17;10.10;;;4.25;;
74957;SDS011;63741;42.624;26.276;2023-05-15T07:15:45;7.40;;;4.00;;
74957;SDS011;63741;42.624;26.276;2023-05-15T07:18:12;8.52;;;3.63;;
74957;SDS011;63741;42.624;26.276;2023-05-15T07:20:39;52.83;;;5.80;;
74957;SDS011;63741;42.624;26.276;2023-05-15T07:23:06;21.77;;;4.30;;
74957;SDS011;63741;42.624;26.276;2023-05-15T07:25:33;9.55;;;4.07;;
74957;SDS011;63741;42.624;26.276;2023-05-15T07:28:00;8.10;;;3.88;;
74957;SDS011;63741;42.624;26.276;2023-05-15T07:30:27;17.80;;;4.15;;
74957;SDS011;63741;42.624;26.276;2023-05-15T07:32:54;30.35;;;5.15;;
74957;SDS011;63741;42.624;26.276;2023-05-15T07:35:21;9.25;;;4.15;;
74957;SDS011;63741;42.624;26.276;2023-05-15T07:37:48;7.63;;;3.85;;
74957;SDS011;63741;42.624;26.276;2023-05-15T07:40:15;6.38;;;4.03;;
74957;SDS011;63741;42.624;26.276;2023-05-15T07:42:42;7.03;;;3.88;;
74957;SDS011;63741;42.624;26.276;2023-05-15T07:45:11;9.20;;;3.83;;
74957;SDS011;63741;42.624;26.276;2023-05-15T07:47:40;9.93;;;3.97;;
74957;SDS011;63741;42.624;26.276;2023-05-15T07:52:36;8.93;;;4.68;;
74957;SDS011;63741;42.624;26.276;2023-05-15T07:55:03;8.30;;;4.03;;
74957;SDS011;63741;42.624;26.276;2023-05-15T07:57:31;7.20;;;4.40;;
74957;SDS011;63741;42.624;26.276;2023-05-15T07:59:57;8.82;;;4.07;;
74957;SDS011;63741;42.624;26.276;2023-05-15T08:02:24;6.28;;;3.83;;
74957;SDS011;63741;42.624;26.276;2023-05-15T08:04:51;7.75;;;4.18;;
74957;SDS011;63741;42.624;26.276;2023-05-15T08:07:18;7.32;;;4.55;;
74957;SDS011;63741;42.624;26.276;2023-05-15T08:09:46;7.28;;;4.50;;
74957;SDS011;63741;42.624;26.276;2023-05-15T08:12:13;13.75;;;4.28;;
74957;SDS011;63741;42.624;26.276;2023-05-15T08:14:50;7.63;;;4.20;;
74957;SDS011;63741;42.624;26.276;2023-05-15T08:17:18;9.60;;;4.50;;
74957;SDS011;63741;42.624;26.276;2023-05-15T08:19:46;11.68;;;4.03;;
74957;SDS011;63741;42.624;26.276;2023-05-15T08:22:14;8.05;;;4.03;;
74957;SDS011;63741;42.624;26.276;2023-05-15T08:24:41;6.45;;;4.43;;
74957;SDS011;63741;42.624;26.276;2023-05-15T08:27:08;6.25;;;4.10;;
74957;SDS011;63741;42.624;26.276;2023-05-15T08:29:35;5.55;;;4.10;;
74957;SDS011;63741;42.624;26.276;2023-05-15T08:32:05;7.60;;;4.32;;
74957;SDS011;63741;42.624;26.276;2023-05-15T08:34:33;11.90;;;4.05;;
74957;SDS011;63741;42.624;26.276;2023-05-15T08:37:00;13.43;;;4.40;;
74957;SDS011;63741;42.624;26.276;2023-05-15T08:39:27;11.10;;;4.60;;
74957;SDS011;63741;42.624;26.276;2023-05-15T08:41:59;9.57;;;4.22;;
74957;SDS011;63741;42.624;26.276;2023-05-15T08:44:28;10.45;;;4.45;;
74957;SDS011;63741;42.624;26.276;2023-05-15T08:46:56;23.00;;;4.72;;
74957;SDS011;63741;42.624;26.276;2023-05-15T08:52:33;6.40;;;3.95;;
74957;SDS011;63741;42.624;26.276;2023-05-15T08:55:00;20.38;;;4.90;;
74957;SDS011;63741;42.624;26.276;2023-05-15T08:57:28;8.20;;;4.25;;
74957;SDS011;63741;42.624;26.276;2023-05-15T08:59:57;5.60;;;3.60;;
74957;SDS011;63741;42.624;26.276;2023-05-15T09:02:25;7.20;;;3.55;;
74957;SDS011;63741;42.624;26.276;2023-05-15T09:04:52;10.90;;;3.90;;
74957;SDS011;63741;42.624;26.276;2023-05-15T09:07:19;8.20;;;4.30;;
74957;SDS011;63741;42.624;26.276;2023-05-15T09:09:46;12.88;;;5.45;;
74957;SDS011;63741;42.624;26.276;2023-05-15T09:12:14;10.38;;;4.00;;
74957;SDS011;63741;42.624;26.276;2023-05-15T09:14:41;5.63;;;3.55;;
74957;SDS011;63741;42.624;26.276;2023-05-15T09:17:09;5.75;;;3.60;;
74957;SDS011;63741;42.624;26.276;2023-05-15T09:19:37;15.18;;;3.47;;
74957;SDS011;63741;42.624;26.276;2023-05-15T09:24:43;10.93;;;3.60;;
74957;SDS011;63741;42.624;26.276;2023-05-15T09:27:13;7.57;;;3.53;;
74957;SDS011;63741;42.624;26.276;2023-05-15T09:29:40;6.68;;;3.47;;
74957;SDS011;63741;42.624;26.276;2023-05-15T09:32:08;12.15;;;3.42;;
74957;SDS011;63741;42.624;26.276;2023-05-15T09:34:37;8.80;;;3.65;;
74957;SDS011;63741;42.624;26.276;2023-05-15T09:37:09;9.55;;;3.75;;
74957;SDS011;63741;42.624;26.276;2023-05-15T09:39:43;7.95;;;3.40;;
74957;SDS011;63741;42.624;26.276;2023-05-15T09:42:10;9.82;;;3.20;;
74957;SDS011;63741;42.624;26.276;2023-05-15T09:44:42;6.25;;;3.50;;
74957;SDS011;63741;42.624;26.276;2023-05-15T09:47:10;5.53;;;3.30;;
74957;SDS011;63741;42.624;26.276;2023-05-15T09:49:38;15.25;;;3.65;;
74957;SDS011;63741;42.624;26.276;2023-05-15T09:52:09;6.68;;;2.97;;
74957;SDS011;63741;42.624;26.276;2023-05-15T09:54:36;8.75;;;3.22;;
74957;SDS011;63741;42.624;26.276;2023-05-15T09:57:08;15.63;;;3.58;;
74957;SDS011;63741;42.624;26.276;2023-05-15T09:59:42;5.72;;;3.40;;
74957;SDS011;63741;42.624;26.276;2023-05-15T10:02:17;5.85;;;2.70;;
74957;SDS011;63741;42.624;26.276;2023-05-15T10:04:52;13.38;;;3.00;;
74957;SDS011;63741;42.624;26.276;2023-05-15T10:10:02;5.95;;;2.90;;
74957;SDS011;63741;42.624;26.276;2023-05-15T10:12:30;5.05;;;2.85;;
74957;SDS011;63741;42.624;26.276;2023-05-15T10:14:58;5.78;;;2.80;;
74957;SDS011;63741;42.624;26.276;2023-05-15T10:17:26;11.27;;;3.13;;
74957;SDS011;63741;42.624;26.276;2023-05-15T10:19:54;13.88;;;3.30;;
74957;SDS011;63741;42.624;26.276;2023-05-15T10:22:27;12.13;;;2.92;;
74957;SDS011;63741;42.624;26.276;2023-05-15T10:27:29;8.82;;;2.90;;
74957;SDS011;63741;42.624;26.276;2023-05-15T10:29:57;6.90;;;3.15;;
74957;SDS011;63741;42.624;26.276;2023-05-15T10:32:25;5.93;;;2.85;;
74957;SDS011;63741;42.624;26.276;2023-05-15T10:34:53;7.63;;;3.10;;
74957;SDS011;63741;42.624;26.276;2023-05-15T10:37:21;7.68;;;2.83;;
74957;SDS011;63741;42.624;26.276;2023-05-15T10:39:49;9.15;;;3.40;;
74957;SDS011;63741;42.624;26.276;2023-05-15T10:42:19;10.20;;;2.90;;
74957;SDS011;63741;42.624;26.276;2023-05-15T10:44:46;9.90;;;2.70;;
74957;SDS011;63741;42.624;26.276;2023-05-15T10:47:14;5.55;;;3.25;;
74957;SDS011;63741;42.624;26.276;2023-05-15T10:49:41;7.13;;;2.75;;
74957;SDS011;63741;42.624;26.276;2023-05-15T10:52:08;5.47;;;2.75;;
74957;SDS011;63741;42.624;26.276;2023-05-15T10:54:35;6.20;;;2.50;;
74957;SDS011;63741;42.624;26.276;2023-05-15T10:57:03;7.00;;;2.80;;
74957;SDS011;63741;42.624;26.276;2023-05-15T10:59:31;8.52;;;3.03;;
74957;SDS011;63741;42.624;26.276;2023-05-15T11:04:55;5.40;;;2.60;;
74957;SDS011;63741;42.624;26.276;2023-05-15T11:07:22;7.28;;;2.92;;
74957;SDS011;63741;42.624;26.276;2023-05-15T11:09:52;49.35;;;4.22;;
74957;SDS011;63741;42.624;26.276;2023-05-15T11:12:20;6.45;;;2.47;;
74957;SDS011;63741;42.624;26.276;2023-05-15T11:17:17;5.70;;;2.72;;
74957;SDS011;63741;42.624;26.276;2023-05-15T11:22:21;7.10;;;2.55;;
74957;SDS011;63741;42.624;26.276;2023-05-15T11:27:42;8.32;;;2.50;;
74957;SDS011;63741;42.624;26.276;2023-05-15T11:37:53;6.78;;;2.22;;
74957;SDS011;63741;42.624;26.276;2023-05-15T11:40:22;3.63;;;2.28;;
74957;SDS011;63741;42.624;26.276;2023-05-15T11:42:59;5.97;;;2.30;;
74957;SDS011;63741;42.624;26.276;2023-05-15T11:45:38;6.60;;;2.40;;
74957;SDS011;63741;42.624;26.276;2023-05-15T11:50:34;6.70;;;2.33;;
74957;SDS011;63741;42.624;26.276;2023-05-15T11:53:04;8.38;;;2.50;;
74957;SDS011;63741;42.624;26.276;2023-05-15T11:55:34;4.80;;;2.50;;
74957;SDS011;63741;42.624;26.276;2023-05-15T11:58:02;8.90;;;2.60;;
74957;SDS011;63741;42.624;26.276;2023-05-15T12:00:36;18.08;;;2.85;;
74957;SDS011;63741;42.624;26.276;2023-05-15T12:03:03;11.85;;;2.53;;
74957;SDS011;63741;42.624;26.276;2023-05-15T12:05:30;5.35;;;2.08;;
74957;SDS011;63741;42.624;26.276;2023-05-15T12:07:57;5.85;;;2.33;;
74957;SDS011;63741;42.624;26.276;2023-05-15T12:10:24;9.35;;;2.25;;
74957;SDS011;63741;42.624;26.276;2023-05-15T12:12:51;5.70;;;2.35;;
74957;SDS011;63741;42.624;26.276;2023-05-15T12:15:18;9.65;;;2.30;;
74957;SDS011;63741;42.624;26.276;2023-05-15T12:17:45;13.27;;;2.42;;
74957;SDS011;63741;42.624;26.276;2023-05-15T12:20:18;7.68;;;2.47;;
74957;SDS011;63741;42.624;26.276;2023-05-15T12:22:45;7.85;;;2.60;;
74957;SDS011;63741;42.624;26.276;2023-05-15T12:25:13;7.40;;;2.38;;
74957;SDS011;63741;42.624;26.276;2023-05-15T12:27:41;7.00;;;2.45;;
74957;SDS011;63741;42.624;26.276;2023-05-15T12:30:08;9.88;;;3.05;;
74957;SDS011;63741;42.624;26.276;2023-05-15T12:32:36;8.63;;;2.88;;
74957;SDS011;63741;42.624;26.276;2023-05-15T12:35:04;3.25;;;2.53;;
74957;SDS011;63741;42.624;26.276;2023-05-15T12:37:32;9.60;;;2.75;;
74957;SDS011;63741;42.624;26.276;2023-05-15T12:40:02;5.28;;;2.20;;
74957;SDS011;63741;42.624;26.276;2023-05-15T12:45:16;24.45;;;3.50;;
74957;SDS011;63741;42.624;26.276;2023-05-15T12:47:44;22.10;;;3.25;;
74957;SDS011;63741;42.624;26.276;2023-05-15T12:50:13;8.27;;;2.75;;
74957;SDS011;63741;42.624;26.276;2023-05-15T12:52:45;9.13;;;2.67;;
74957;SDS011;63741;42.624;26.276;2023-05-15T12:55:26;45.05;;;4.20;;
74957;SDS011;63741;42.624;26.276;2023-05-15T12:57:57;10.35;;;2.88;;
74957;SDS011;63741;42.624;26.276;2023-05-15T13:00:36;8.40;;;2.45;;
74957;SDS011;63741;42.624;26.276;2023-05-15T13:03:04;7.63;;;2.20;;
74957;SDS011;63741;42.624;26.276;2023-05-15T13:05:35;9.73;;;2.58;;
74957;SDS011;63741;42.624;26.276;2023-05-15T13:08:04;7.97;;;2.25;;
74957;SDS011;63741;42.624;26.276;2023-05-15T13:10:33;5.15;;;2.00;;
74957;SDS011;63741;42.624;26.276;2023-05-15T13:13:01;6.70;;;2.45;;
74957;SDS011;63741;42.624;26.276;2023-05-15T13:18:03;8.63;;;2.22;;
74957;SDS011;63741;42.624;26.276;2023-05-15T13:20:32;4.20;;;2.10;;
74957;SDS011;63741;42.624;26.276;2023-05-15T13:23:01;4.95;;;2.38;;
74957;SDS011;63741;42.624;26.276;2023-05-15T13:25:28;9.70;;;2.40;;
74957;SDS011;63741;42.624;26.276;2023-05-15T13:27:58;4.07;;;2.00;;
74957;SDS011;63741;42.624;26.276;2023-05-15T13:30:29;5.10;;;2.13;;
74957;SDS011;63741;42.624;26.276;2023-05-15T13:32:57;4.55;;;2.00;;
74957;SDS011;63741;42.624;26.276;2023-05-15T13:35:24;4.57;;;2.33;;
74957;SDS011;63741;42.624;26.276;2023-05-15T13:37:51;10.70;;;2.65;;
74957;SDS011;63741;42.624;26.276;2023-05-15T13:40:18;38.83;;;4.65;;
74957;SDS011;63741;42.624;26.276;2023-05-15T13:42:45;6.75;;;2.42;;
74957;SDS011;63741;42.624;26.276;2023-05-15T13:45:12;5.03;;;2.42;;
74957;SDS011;63741;42.624;26.276;2023-05-15T13:47:42;17.90;;;2.63;;
74957;SDS011;63741;42.624;26.276;2023-05-15T13:50:10;64.45;;;3.85;;
74957;SDS011;63741;42.624;26.276;2023-05-15T13:52:39;43.05;;;4.28;;
74957;SDS011;63741;42.624;26.276;2023-05-15T13:55:07;40.45;;;3.58;;
74957;SDS011;63741;42.624;26.276;2023-05-15T13:57:36;58.20;;;5.60;;
74957;SDS011;63741;42.624;26.276;2023-05-15T14:00:04;46.67;;;3.40;;
74957;SDS011;63741;42.624;26.276;2023-05-15T14:02:42;16.80;;;2.70;;
74957;SDS011;63741;42.624;26.276;2023-05-15T14:05:10;24.95;;;2.92;;
74957;SDS011;63741;42.624;26.276;2023-05-15T14:07:38;5.30;;;2.13;;
74957;SDS011;63741;42.624;26.276;2023-05-15T14:10:05;13.98;;;2.50;;
74957;SDS011;63741;42.624;26.276;2023-05-15T14:12:33;4.95;;;2.10;;
74957;SDS011;63741;42.624;26.276;2023-05-15T14:15:00;3.20;;;2.20;;
74957;SDS011;63741;42.624;26.276;2023-05-15T14:17:27;12.18;;;2.35;;
74957;SDS011;63741;42.624;26.276;2023-05-15T14:19:54;6.28;;;2.20;;
74957;SDS011;63741;42.624;26.276;2023-05-15T14:22:21;7.00;;;2.35;;
74957;SDS011;63741;42.624;26.276;2023-05-15T14:24:51;17.88;;;2.63;;
74957;SDS011;63741;42.624;26.276;2023-05-15T14:27:18;44.08;;;4.05;;
74957;SDS011;63741;42.624;26.276;2023-05-15T14:29:46;48.17;;;3.90;;
74957;SDS011;63741;42.624;26.276;2023-05-15T14:32:15;16.13;;;2.72;;
74957;SDS011;63741;42.624;26.276;2023-05-15T14:34:42;10.95;;;2.65;;
74957;SDS011;63741;42.624;26.276;2023-05-15T14:37:09;13.55;;;2.70;;
74957;SDS011;63741;42.624;26.276;2023-05-15T14:39:36;92.80;;;6.05;;
74957;SDS011;63741;42.624;26.276;2023-05-15T14:42:03;23.50;;;2.83;;
74957;SDS011;63741;42.624;26.276;2023-05-15T14:44:32;12.23;;;2.70;;
74957;SDS011;63741;42.624;26.276;2023-05-15T14:47:09;11.00;;;2.75;;
74957;SDS011;63741;42.624;26.276;2023-05-15T14:49:38;8.20;;;2.10;;
74957;SDS011;63741;42.624;26.276;2023-05-15T14:52:07;6.40;;;2.40;;
74957;SDS011;63741;42.624;26.276;2023-05-15T14:54:35;10.07;;;2.53;;
74957;SDS011;63741;42.624;26.276;2023-05-15T14:57:03;6.78;;;2.30;;
74957;SDS011;63741;42.624;26.276;2023-05-15T14:59:30;12.07;;;2.33;;
74957;SDS011;63741;42.624;26.276;2023-05-15T15:01:57;9.98;;;2.40;;
74957;SDS011;63741;42.624;26.276;2023-05-15T15:04:24;10.63;;;2.28;;
74957;SDS011;63741;42.624;26.276;2023-05-15T15:06:55;50.10;;;3.72;;
74957;SDS011;63741;42.624;26.276;2023-05-15T15:09:23;21.38;;;3.10;;
74957;SDS011;63741;42.624;26.276;2023-05-15T15:11:54;9.52;;;2.60;;
74957;SDS011;63741;42.624;26.276;2023-05-15T15:14:21;13.13;;;2.65;;
74957;SDS011;63741;42.624;26.276;2023-05-15T15:16:47;85.88;;;6.85;;
74957;SDS011;63741;42.624;26.276;2023-05-15T15:19:15;28.20;;;3.75;;
74957;SDS011;63741;42.624;26.276;2023-05-15T15:21:45;20.63;;;2.80;;
74957;SDS011;63741;42.624;26.276;2023-05-15T15:24:12;25.23;;;3.33;;
74957;SDS011;63741;42.624;26.276;2023-05-15T15:26:39;12.60;;;2.70;;
74957;SDS011;63741;42.624;26.276;2023-05-15T15:29:05;35.03;;;3.67;;